Time,TemperatureF,DewpointF,PressureIn,WindDirection,WindDirectionDegrees,WindSpeedMPH,WindSpeedGustMPH,Humidity,HourlyPrecipIn,Conditions,Clouds,dailyrainin,SoftwareType,DateUTC
2013-07-01 00:01:00,79.6,77.7,29.83,South,187,13.0,13.0,94,0.00,,,0.00,Wunderground v.1.15,2013-07-01 04:01:00,
2013-07-01 00:03:00,79.8,77.9,29.83,South,178,7.0,18.0,94,0.00,,,0.00,Wunderground v.1.15,2013-07-01 04:03:00,
2013-07-01 00:07:00,79.9,78.0,29.83,SSW,207,17.0,19.0,94,0.00,,,0.00,Wunderground v.1.15,2013-07-01 04:07:00,
2013-07-01 00:13:00,80.0,78.1,29.83,South,187,12.0,19.0,94,0.00,,,0.00,Wunderground v.1.15,2013-07-01 04:13:00,
2013-07-01 00:19:00,79.9,78.0,29.83,South,188,16.0,21.0,94,0.00,,,0.00,Wunderground v.1.15,2013-07-01 04:19:00,
2013-07-01 00:22:00,79.9,78.0,29.83,South,180,12.0,16.0,94,0.00,,,0.00,Wunderground v.1.15,2013-07-01 04:22:00,
2013-07-01 00:28:00,79.8,77.9,29.83,South,189,13.0,16.0,94,0.00,,,0.00,Wunderground v.1.15,2013-07-01 04:28:00,
2013-07-01 00:33:00,79.8,78.2,29.83,South,180,8.0,18.0,95,0.00,,,0.00,Wunderground v.1.15,2013-07-01 04:33:00,
2013-07-01 00:39:00,79.6,78.0,29.83,South,186,17.0,18.0,95,0.00,,,0.00,Wunderground v.1.15,2013-07-01 04:39:00,
2013-07-01 00:44:00,79.6,78.0,29.83,South,180,10.0,18.0,95,0.00,,,0.00,Wunderground v.1.15,2013-07-01 04:44:00,
2013-07-01 00:50:00,79.6,78.0,29.84,South,191,20.0,20.0,95,0.00,,,0.00,Wunderground v.1.15,2013-07-01 04:50:00,
2013-07-01 00:56:00,79.7,78.1,29.84,SSW,196,18.0,20.0,95,0.00,,,0.00,Wunderground v.1.15,2013-07-01 04:56:00,
2013-07-01 01:01:00,79.7,78.1,29.84,SSW,192,21.0,21.0,95,0.00,,,0.00,Wunderground v.1.15,2013-07-01 05:01:00,
2013-07-01 01:05:00,79.7,78.1,29.84,SSW,196,21.0,21.0,95,0.00,,,0.00,Wunderground v.1.15,2013-07-01 05:05:00,
2013-07-01 01:11:00,79.6,78.0,29.84,South,190,17.0,19.0,95,0.00,,,0.00,Wunderground v.1.15,2013-07-01 05:11:00,
2013-07-01 01:17:00,79.7,78.1,29.85,SSW,198,20.0,20.0,95,0.00,,,0.00,Wunderground v.1.15,2013-07-01 05:17:00,
2013-07-01 01:22:00,79.5,77.9,29.85,SSW,198,16.0,20.0,95,0.00,,,0.00,Wunderground v.1.15,2013-07-01 05:22:00,
2013-07-01 01:28:00,79.5,77.9,29.85,South,191,18.0,20.0,95,0.00,,,0.00,Wunderground v.1.15,2013-07-01 05:28:00,
2013-07-01 01:33:00,79.4,77.8,29.85,SSW,198,17.0,20.0,95,0.00,,,0.00,Wunderground v.1.15,2013-07-01 05:33:00,
2013-07-01 01:39:00,79.3,77.7,29.85,SSW,200,18.0,20.0,95,0.00,,,0.00,Wunderground v.1.15,2013-07-01 05:39:00,
2013-07-01 01:44:00,79.3,77.7,29.85,SSW,203,15.0,19.0,95,0.00,,,0.00,Wunderground v.1.15,2013-07-01 05:44:00,
2013-07-01 01:49:00,79.3,77.7,29.84,South,184,16.0,19.0,95,0.00,,,0.00,Wunderground v.1.15,2013-07-01 05:49:00,
2013-07-01 01:54:00,79.3,77.7,29.84,SSW,192,16.0,18.0,95,0.00,,,0.00,Wunderground v.1.15,2013-07-01 05:54:00,
2013-07-01 02:00:00,79.2,77.6,29.84,SSW,194,14.0,16.0,95,0.00,,,0.00,Wunderground v.1.15,2013-07-01 06:00:00,
2013-07-01 02:05:00,79.2,77.6,29.84,SSW,193,13.0,18.0,95,0.00,,,0.00,Wunderground v.1.15,2013-07-01 06:05:00,
2013-07-01 02:10:00,79.2,77.6,29.84,South,187,17.0,17.0,95,0.00,,,0.00,Wunderground v.1.15,2013-07-01 06:10:00,
2013-07-01 02:15:00,79.2,77.6,29.84,SSW,194,14.0,19.0,95,0.00,,,0.00,Wunderground v.1.15,2013-07-01 06:15:00,
2013-07-01 02:20:00,79.1,77.5,29.83,SSW,196,12.0,15.0,95,0.00,,,0.00,Wunderground v.1.15,2013-07-01 06:20:00,
2013-07-01 02:25:00,79.2,77.6,29.83,South,190,11.0,18.0,95,0.00,,,0.00,Wunderground v.1.15,2013-07-01 06:25:00,
2013-07-01 02:30:00,79.1,77.5,29.83,South,190,15.0,16.0,95,0.00,,,0.00,Wunderground v.1.15,2013-07-01 06:30:00,
2013-07-01 02:35:00,79.1,77.5,29.83,SSW,196,17.0,18.0,95,0.00,,,0.00,Wunderground v.1.15,2013-07-01 06:35:00,
2013-07-01 02:40:00,79.0,77.4,29.83,South,183,14.0,15.0,95,0.00,,,0.00,Wunderground v.1.15,2013-07-01 06:40:00,
2013-07-01 02:45:00,79.1,77.5,29.83,South,190,16.0,20.0,95,0.00,,,0.00,Wunderground v.1.15,2013-07-01 06:45:00,
2013-07-01 02:50:00,79.1,77.5,29.83,South,190,16.0,19.0,95,0.00,,,0.00,Wunderground v.1.15,2013-07-01 06:50:00,
2013-07-01 02:55:00,79.1,77.5,29.83,South,186,15.0,19.0,95,0.00,,,0.00,Wunderground v.1.15,2013-07-01 06:55:00,
2013-07-01 03:00:00,79.1,77.5,29.83,South,179,13.0,17.0,95,0.00,,,0.00,Wunderground v.1.15,2013-07-01 07:00:00,
2013-07-01 03:05:00,79.1,77.5,29.83,South,191,15.0,19.0,95,0.00,,,0.00,Wunderground v.1.15,2013-07-01 07:05:00,
2013-07-01 03:10:00,79.1,77.5,29.83,SSW,192,14.0,15.0,95,0.00,,,0.00,Wunderground v.1.15,2013-07-01 07:10:00,
2013-07-01 03:15:00,79.1,77.5,29.83,SSW,192,15.0,17.0,95,0.00,,,0.00,Wunderground v.1.15,2013-07-01 07:15:00,
2013-07-01 03:20:00,79.1,77.5,29.83,South,188,15.0,17.0,95,0.00,,,0.00,Wunderground v.1.15,2013-07-01 07:20:00,
2013-07-01 03:25:00,79.1,77.5,29.83,SSW,192,16.0,17.0,95,0.00,,,0.00,Wunderground v.1.15,2013-07-01 07:25:00,
2013-07-01 03:30:00,79.0,77.4,29.83,SSW,202,14.0,16.0,95,0.00,,,0.00,Wunderground v.1.15,2013-07-01 07:30:00,
2013-07-01 03:35:00,79.0,77.4,29.83,SSW,200,15.0,21.0,95,0.00,,,0.00,Wunderground v.1.15,2013-07-01 07:35:00,
2013-07-01 03:40:00,79.1,77.5,29.83,SSW,202,14.0,17.0,95,0.00,,,0.00,Wunderground v.1.15,2013-07-01 07:40:00,
2013-07-01 03:45:00,78.9,77.0,29.83,SSW,201,14.0,19.0,94,0.00,,,0.00,Wunderground v.1.15,2013-07-01 07:45:00,
2013-07-01 03:50:00,78.9,77.0,29.83,SSW,209,14.0,16.0,94,0.00,,,0.00,Wunderground v.1.15,2013-07-01 07:50:00,
2013-07-01 03:55:00,78.9,77.0,29.83,SSW,198,15.0,17.0,94,0.00,,,0.00,Wunderground v.1.15,2013-07-01 07:55:00,
2013-07-01 04:00:00,78.8,77.2,29.83,SSW,205,11.0,14.0,95,0.00,,,0.00,Wunderground v.1.15,2013-07-01 08:00:00,
2013-07-01 04:05:00,78.8,76.9,29.83,SW,214,12.0,17.0,94,0.00,,,0.00,Wunderground v.1.15,2013-07-01 08:05:00,
2013-07-01 04:10:00,78.7,76.8,29.84,SW,217,12.0,14.0,94,0.00,,,0.00,Wunderground v.1.15,2013-07-01 08:10:00,
2013-07-01 04:15:00,78.7,76.8,29.84,SW,221,9.0,15.0,94,0.00,,,0.00,Wunderground v.1.15,2013-07-01 08:15:00,
2013-07-01 04:20:00,78.7,76.8,29.84,SW,228,11.0,14.0,94,0.00,,,0.00,Wunderground v.1.15,2013-07-01 08:20:00,
2013-07-01 04:25:00,78.7,77.1,29.84,SW,220,12.0,15.0,95,0.00,,,0.00,Wunderground v.1.15,2013-07-01 08:25:00,
2013-07-01 04:30:00,78.5,76.6,29.84,WSW,243,14.0,14.0,94,0.00,,,0.00,Wunderground v.1.15,2013-07-01 08:30:00,
2013-07-01 04:35:00,78.2,76.0,29.84,SW,236,15.0,15.0,93,0.00,,,0.00,Wunderground v.1.15,2013-07-01 08:35:00,
2013-07-01 04:40:00,78.0,75.8,29.84,SW,234,12.0,13.0,93,0.00,,,0.00,Wunderground v.1.15,2013-07-01 08:40:00,
2013-07-01 04:45:00,78.0,75.8,29.84,SW,235,13.0,15.0,93,0.00,,,0.00,Wunderground v.1.15,2013-07-01 08:45:00,
2013-07-01 04:51:00,77.8,75.6,29.84,WSW,240,13.0,14.0,93,0.00,,,0.00,Wunderground v.1.15,2013-07-01 08:51:00,
2013-07-01 04:56:00,77.7,75.5,29.85,SW,233,13.0,15.0,93,0.00,,,0.00,Wunderground v.1.15,2013-07-01 08:56:00,
2013-07-01 05:01:00,77.6,75.1,29.85,SW,234,10.0,16.0,92,0.00,,,0.00,Wunderground v.1.15,2013-07-01 09:01:00,
2013-07-01 05:06:00,77.6,75.1,29.85,SW,234,15.0,16.0,92,0.00,,,0.00,Wunderground v.1.15,2013-07-01 09:06:00,
2013-07-01 05:11:00,77.6,75.1,29.85,SW,229,10.0,17.0,92,0.00,,,0.00,Wunderground v.1.15,2013-07-01 09:11:00,
2013-07-01 05:16:00,77.5,74.7,29.85,SW,227,14.0,17.0,91,0.00,,,0.00,Wunderground v.1.15,2013-07-01 09:16:00,
2013-07-01 05:21:00,77.6,75.1,29.86,SW,229,13.0,18.0,92,0.00,,,0.00,Wunderground v.1.15,2013-07-01 09:21:00,
2013-07-01 05:26:00,77.5,75.0,29.86,SW,226,12.0,18.0,92,0.00,,,0.00,Wunderground v.1.15,2013-07-01 09:26:00,
2013-07-01 05:31:00,77.4,74.9,29.86,SW,231,13.0,16.0,92,0.00,,,0.00,Wunderground v.1.15,2013-07-01 09:31:00,
2013-07-01 05:36:00,77.4,74.9,29.86,SW,230,14.0,17.0,92,0.00,,,0.00,Wunderground v.1.15,2013-07-01 09:36:00,
2013-07-01 05:41:00,77.4,74.9,29.86,SW,233,14.0,16.0,92,0.00,,,0.00,Wunderground v.1.15,2013-07-01 09:41:00,
2013-07-01 05:46:00,77.4,74.9,29.86,SW,231,14.0,16.0,92,0.00,,,0.00,Wunderground v.1.15,2013-07-01 09:46:00,
2013-07-01 05:51:00,77.3,74.8,29.87,SW,227,13.0,13.0,92,0.00,,,0.00,Wunderground v.1.15,2013-07-01 09:51:00,
2013-07-01 05:56:00,77.3,74.8,29.87,SW,224,11.0,16.0,92,0.00,,,0.00,Wunderground v.1.15,2013-07-01 09:56:00,
2013-07-01 06:01:00,77.3,75.1,29.87,SW,214,10.0,14.0,93,0.00,,,0.00,Wunderground v.1.15,2013-07-01 10:01:00,
2013-07-01 06:06:00,77.3,75.1,29.87,SW,222,11.0,14.0,93,0.00,,,0.00,Wunderground v.1.15,2013-07-01 10:06:00,
2013-07-01 06:11:00,77.3,75.1,29.87,SW,221,11.0,13.0,93,0.00,,,0.00,Wunderground v.1.15,2013-07-01 10:11:00,
2013-07-01 06:16:00,77.3,75.4,29.88,SW,215,13.0,14.0,94,0.00,,,0.00,Wunderground v.1.15,2013-07-01 10:16:00,
2013-07-01 06:21:00,77.2,75.3,29.88,SSW,211,11.0,15.0,94,0.00,,,0.00,Wunderground v.1.15,2013-07-01 10:21:00,
2013-07-01 06:26:00,77.3,75.4,29.88,SSW,205,16.0,16.0,94,0.00,,,0.00,Wunderground v.1.15,2013-07-01 10:26:00,
2013-07-01 06:31:00,77.2,75.3,29.88,SSW,206,14.0,15.0,94,0.00,,,0.00,Wunderground v.1.15,2013-07-01 10:31:00,
2013-07-01 06:36:00,77.1,75.6,29.88,SSW,209,10.0,16.0,95,0.00,,,0.00,Wunderground v.1.15,2013-07-01 10:36:00,
2013-07-01 06:41:00,77.0,75.5,29.88,SSW,207,10.0,14.0,95,0.00,,,0.00,Wunderground v.1.15,2013-07-01 10:41:00,
2013-07-01 06:46:00,77.0,75.5,29.89,SSW,202,9.0,16.0,95,0.00,,,0.00,Wunderground v.1.15,2013-07-01 10:46:00,
2013-07-01 06:51:00,76.9,75.7,29.89,SSW,198,17.0,17.0,96,0.00,,,0.00,Wunderground v.1.15,2013-07-01 10:51:00,
2013-07-01 06:56:00,76.8,75.6,29.89,SSW,194,15.0,17.0,96,0.00,,,0.00,Wunderground v.1.15,2013-07-01 10:56:00,
2013-07-01 07:01:00,76.7,75.5,29.88,South,188,12.0,17.0,96,0.00,,,0.00,Wunderground v.1.15,2013-07-01 11:01:00,
2013-07-01 07:06:00,76.5,75.3,29.88,South,182,15.0,19.0,96,0.00,,,0.00,Wunderground v.1.15,2013-07-01 11:06:00,
2013-07-01 07:12:00,76.5,75.3,29.88,SSW,198,15.0,17.0,96,0.00,,,0.00,Wunderground v.1.15,2013-07-01 11:12:00,
2013-07-01 07:17:00,76.5,75.3,29.88,SSW,205,14.0,20.0,96,0.00,,,0.00,Wunderground v.1.15,2013-07-01 11:17:00,
2013-07-01 07:22:00,76.6,75.4,29.89,SSW,205,16.0,16.0,96,0.00,,,0.00,Wunderground v.1.15,2013-07-01 11:22:00,
2013-07-01 07:27:00,76.6,75.4,29.90,SSW,199,14.0,19.0,96,0.00,,,0.00,Wunderground v.1.15,2013-07-01 11:27:00,
2013-07-01 07:32:00,76.6,75.4,29.90,SSW,208,16.0,19.0,96,0.00,,,0.00,Wunderground v.1.15,2013-07-01 11:32:00,
2013-07-01 07:38:00,76.8,75.6,29.90,SSW,199,16.0,19.0,96,0.00,,,0.00,Wunderground v.1.15,2013-07-01 11:38:00,
2013-07-01 07:43:00,76.8,75.6,29.90,SSW,213,16.0,19.0,96,0.00,,,0.00,Wunderground v.1.15,2013-07-01 11:43:00,
2013-07-01 07:48:00,76.8,75.3,29.90,SSW,212,12.0,19.0,95,0.00,,,0.00,Wunderground v.1.15,2013-07-01 11:48:00,
2013-07-01 07:53:00,76.9,75.7,29.90,SSW,200,16.0,18.0,96,0.00,,,0.00,Wunderground v.1.15,2013-07-01 11:53:00,
2013-07-01 07:58:00,77.0,75.8,29.90,SSW,198,15.0,18.0,96,0.00,,,0.00,Wunderground v.1.15,2013-07-01 11:58:00,
2013-07-01 08:03:00,77.0,75.8,29.90,SSW,198,11.0,16.0,96,0.00,,,0.00,Wunderground v.1.15,2013-07-01 12:03:00,
2013-07-01 08:08:00,77.1,75.9,29.90,SSW,202,12.0,16.0,96,0.00,,,0.00,Wunderground v.1.15,2013-07-01 12:08:00,
2013-07-01 08:13:00,77.2,76.3,29.90,SSW,192,13.0,16.0,97,0.00,,,0.00,Wunderground v.1.15,2013-07-01 12:13:00,
2013-07-01 08:18:00,77.2,76.3,29.90,SSW,194,12.0,16.0,97,0.00,,,0.00,Wunderground v.1.15,2013-07-01 12:18:00,
2013-07-01 08:23:00,77.3,76.4,29.90,SSW,211,14.0,16.0,97,0.00,,,0.00,Wunderground v.1.15,2013-07-01 12:23:00,
2013-07-01 08:28:00,77.2,76.0,29.90,SSW,196,14.0,18.0,96,0.00,,,0.00,Wunderground v.1.15,2013-07-01 12:28:00,
2013-07-01 08:33:00,77.1,75.9,29.90,South,181,4.0,14.0,96,0.00,,,0.00,Wunderground v.1.15,2013-07-01 12:33:00,
2013-07-01 08:38:00,76.9,75.7,29.90,South,179,7.0,14.0,96,0.00,,,0.00,Wunderground v.1.15,2013-07-01 12:38:00,
2013-07-01 08:43:00,76.6,75.4,29.90,SSW,193,10.0,19.0,96,0.00,,,0.00,Wunderground v.1.15,2013-07-01 12:43:00,
2013-07-01 08:48:00,76.8,75.6,29.91,South,179,14.0,20.0,96,0.00,,,0.00,Wunderground v.1.15,2013-07-01 12:48:00,
2013-07-01 08:53:00,76.9,75.7,29.91,South,184,14.0,18.0,96,0.00,,,0.00,Wunderground v.1.15,2013-07-01 12:53:00,
2013-07-01 08:58:00,76.7,75.5,29.91,SSE,166,5.0,18.0,96,0.00,,,0.00,Wunderground v.1.15,2013-07-01 12:58:00,
2013-07-01 09:03:00,76.5,75.3,29.91,South,180,6.0,17.0,96,0.00,,,0.00,Wunderground v.1.15,2013-07-01 13:03:00,
2013-07-01 09:08:00,76.3,75.1,29.91,South,179,10.0,17.0,96,0.00,,,0.00,Wunderground v.1.15,2013-07-01 13:08:00,
2013-07-01 09:13:00,76.1,74.9,29.91,South,179,9.0,14.0,96,0.00,,,0.00,Wunderground v.1.15,2013-07-01 13:13:00,
2013-07-01 09:18:00,75.9,75.0,29.91,SE,133,3.0,14.0,97,0.00,,,0.01,Wunderground v.1.15,2013-07-01 13:18:00,
2013-07-01 09:23:00,75.5,74.6,29.91,South,176,4.0,13.0,97,0.00,,,0.01,Wunderground v.1.15,2013-07-01 13:23:00,
2013-07-01 09:28:00,75.3,74.4,29.91,South,169,7.0,13.0,97,0.00,,,0.01,Wunderground v.1.15,2013-07-01 13:28:00,
2013-07-01 09:33:00,75.1,74.5,29.91,SE,141,3.0,13.0,98,0.00,,,0.01,Wunderground v.1.15,2013-07-01 13:33:00,
2013-07-01 09:38:00,74.9,74.3,29.91,SSE,166,5.0,14.0,98,0.00,,,0.02,Wunderground v.1.15,2013-07-01 13:38:00,
2013-07-01 09:43:00,74.8,74.2,29.91,South,175,3.0,9.0,98,0.00,,,0.02,Wunderground v.1.15,2013-07-01 13:43:00,
2013-07-01 09:48:00,74.8,74.2,29.91,South,188,8.0,13.0,98,0.00,,,0.02,Wunderground v.1.15,2013-07-01 13:48:00,
2013-07-01 09:53:00,74.8,74.5,29.91,South,180,12.0,15.0,99,0.04,,,0.03,Wunderground v.1.15,2013-07-01 13:53:00,
2013-07-01 09:58:00,74.9,74.6,29.91,South,178,6.0,15.0,99,0.04,,,0.03,Wunderground v.1.15,2013-07-01 13:58:00,
2013-07-01 10:03:00,75.0,74.7,29.91,South,178,6.0,13.0,99,0.08,,,0.04,Wunderground v.1.15,2013-07-01 14:03:00,
2013-07-01 10:08:00,74.9,74.6,29.91,South,178,5.0,14.0,99,0.10,,,0.05,Wunderground v.1.15,2013-07-01 14:08:00,
2013-07-01 10:13:00,74.9,74.6,29.91,SSE,160,5.0,17.0,99,0.09,,,0.06,Wunderground v.1.15,2013-07-01 14:13:00,
2013-07-01 10:18:00,74.9,74.9,29.91,South,182,9.0,17.0,100,0.09,,,0.06,Wunderground v.1.15,2013-07-01 14:18:00,
2013-07-01 10:23:00,75.0,75.0,29.91,South,183,7.0,17.0,100,0.09,,,0.07,Wunderground v.1.15,2013-07-01 14:23:00,
2013-07-01 10:28:00,74.9,74.9,29.91,South,185,5.0,17.0,100,0.08,,,0.08,Wunderground v.1.15,2013-07-01 14:28:00,
2013-07-01 10:33:00,74.9,74.9,29.91,South,180,7.0,16.0,100,0.08,,,0.08,Wunderground v.1.15,2013-07-01 14:33:00,
2013-07-01 10:38:00,75.0,75.0,29.91,South,186,7.0,17.0,100,0.05,,,0.08,Wunderground v.1.15,2013-07-01 14:38:00,
2013-07-01 10:43:00,74.9,74.9,29.91,South,182,10.0,14.0,100,0.04,,,0.08,Wunderground v.1.15,2013-07-01 14:43:00,
2013-07-01 10:48:00,74.8,74.8,29.92,South,184,7.0,16.0,100,0.00,,,0.08,Wunderground v.1.15,2013-07-01 14:48:00,
2013-07-01 10:54:00,74.6,74.6,29.92,SE,136,4.0,17.0,100,0.00,,,0.08,Wunderground v.1.15,2013-07-01 14:54:00,
2013-07-01 10:59:00,74.7,74.7,29.92,South,180,12.0,19.0,100,0.00,,,0.08,Wunderground v.1.15,2013-07-01 14:59:00,
2013-07-01 11:04:00,74.8,74.8,29.92,South,181,10.0,15.0,100,0.00,,,0.09,Wunderground v.1.15,2013-07-01 15:04:00,
2013-07-01 11:09:00,74.8,74.5,29.92,South,173,7.0,15.0,99,0.00,,,0.09,Wunderground v.1.15,2013-07-01 15:09:00,
2013-07-01 11:14:00,74.9,74.9,29.92,SSW,195,13.0,16.0,100,0.21,,,0.11,Wunderground v.1.15,2013-07-01 15:14:00,
2013-07-01 11:19:00,75.2,75.2,29.92,South,182,4.0,16.0,100,0.24,,,0.13,Wunderground v.1.15,2013-07-01 15:19:00,
2013-07-01 11:24:00,75.1,75.1,29.92,South,182,13.0,15.0,100,0.16,,,0.14,Wunderground v.1.15,2013-07-01 15:24:00,
2013-07-01 11:29:00,75.2,75.2,29.92,South,182,7.0,15.0,100,0.09,,,0.14,Wunderground v.1.15,2013-07-01 15:29:00,
2013-07-01 11:34:00,75.3,75.3,29.92,South,177,2.0,9.0,100,0.05,,,0.14,Wunderground v.1.15,2013-07-01 15:34:00,
2013-07-01 11:39:00,75.4,75.4,29.92,South,177,3.0,9.0,100,0.04,,,0.14,Wunderground v.1.15,2013-07-01 15:39:00,
2013-07-01 11:44:00,75.5,75.5,29.92,South,176,2.0,8.0,100,0.00,,,0.14,Wunderground v.1.15,2013-07-01 15:44:00,
2013-07-01 11:49:00,75.5,75.5,29.92,SSE,168,4.0,9.0,100,0.00,,,0.14,Wunderground v.1.15,2013-07-01 15:49:00,
2013-07-01 11:54:00,75.6,75.6,29.92,SSE,165,5.0,6.0,100,0.00,,,0.14,Wunderground v.1.15,2013-07-01 15:54:00,
2013-07-01 11:59:00,75.5,75.5,29.92,ESE,123,1.0,11.0,100,0.00,,,0.14,Wunderground v.1.15,2013-07-01 15:59:00,
2013-07-01 12:04:00,75.6,75.6,29.92,SSE,163,2.0,7.0,100,0.00,,,0.14,Wunderground v.1.15,2013-07-01 16:04:00,
2013-07-01 12:09:00,75.4,75.4,29.93,SE,146,6.0,9.0,100,0.00,,,0.14,Wunderground v.1.15,2013-07-01 16:09:00,
2013-07-01 12:14:00,75.4,75.4,29.93,SSE,156,5.0,10.0,100,0.00,,,0.14,Wunderground v.1.15,2013-07-01 16:14:00,
2013-07-01 12:19:00,75.3,75.3,29.93,SE,137,3.0,10.0,100,0.00,,,0.14,Wunderground v.1.15,2013-07-01 16:19:00,
2013-07-01 12:24:00,75.3,75.0,29.92,South,178,6.0,7.0,99,0.00,,,0.14,Wunderground v.1.15,2013-07-01 16:24:00,
2013-07-01 12:29:00,75.3,75.3,29.92,South,170,3.0,7.0,100,0.00,,,0.14,Wunderground v.1.15,2013-07-01 16:29:00,
2013-07-01 12:34:00,75.2,74.9,29.92,South,174,8.0,8.0,99,0.00,,,0.14,Wunderground v.1.15,2013-07-01 16:34:00,
2013-07-01 12:39:00,75.1,74.8,29.93,South,184,5.0,13.0,99,0.00,,,0.14,Wunderground v.1.15,2013-07-01 16:39:00,
2013-07-01 12:44:00,75.3,75.0,29.93,South,184,5.0,12.0,99,0.00,,,0.14,Wunderground v.1.15,2013-07-01 16:44:00,
2013-07-01 12:49:00,75.4,75.1,29.92,SSE,161,4.0,12.0,99,0.00,,,0.14,Wunderground v.1.15,2013-07-01 16:49:00,
2013-07-01 12:54:00,75.4,75.1,29.92,South,178,5.0,12.0,99,0.00,,,0.14,Wunderground v.1.15,2013-07-01 16:54:00,
2013-07-01 12:59:00,75.5,75.5,29.92,SSE,165,2.0,12.0,100,0.00,,,0.14,Wunderground v.1.15,2013-07-01 16:59:00,
2013-07-01 13:04:00,75.6,75.6,29.92,South,169,3.0,13.0,100,0.00,,,0.15,Wunderground v.1.15,2013-07-01 17:04:00,
2013-07-01 13:09:00,75.6,75.6,29.92,SSE,166,6.0,14.0,100,0.00,,,0.15,Wunderground v.1.15,2013-07-01 17:09:00,
2013-07-01 13:14:00,75.6,75.6,29.92,South,179,2.0,11.0,100,0.06,,,0.16,Wunderground v.1.15,2013-07-01 17:14:00,
2013-07-01 13:19:00,75.8,75.8,29.92,South,182,12.0,13.0,100,0.08,,,0.17,Wunderground v.1.15,2013-07-01 17:19:00,
2013-07-01 13:24:00,75.9,75.9,29.91,SE,144,6.0,9.0,100,0.08,,,0.17,Wunderground v.1.15,2013-07-01 17:24:00,
2013-07-01 13:29:00,75.9,75.9,29.91,South,183,4.0,11.0,100,0.06,,,0.17,Wunderground v.1.15,2013-07-01 17:29:00,
2013-07-01 13:34:00,75.8,75.8,29.91,SSE,163,5.0,8.0,100,0.04,,,0.17,Wunderground v.1.15,2013-07-01 17:34:00,
2013-07-01 13:39:00,75.7,75.7,29.91,SE,129,5.0,11.0,100,0.04,,,0.18,Wunderground v.1.15,2013-07-01 17:39:00,
2013-07-01 13:45:00,75.8,75.8,29.91,SSE,160,5.0,12.0,100,0.04,,,0.18,Wunderground v.1.15,2013-07-01 17:45:00,
2013-07-01 13:50:00,76.1,76.1,29.91,SSE,162,4.0,5.0,100,0.04,,,0.18,Wunderground v.1.15,2013-07-01 17:50:00,
2013-07-01 13:55:00,76.1,76.1,29.91,SSE,157,3.0,12.0,100,0.00,,,0.18,Wunderground v.1.15,2013-07-01 17:55:00,
2013-07-01 14:00:00,76.2,76.2,29.91,South,183,5.0,6.0,100,0.00,,,0.18,Wunderground v.1.15,2013-07-01 18:00:00,
2013-07-01 14:05:00,76.3,76.3,29.92,South,180,6.0,14.0,100,0.00,,,0.18,Wunderground v.1.15,2013-07-01 18:05:00,
2013-07-01 14:10:00,76.3,76.3,29.91,South,179,4.0,7.0,100,0.00,,,0.18,Wunderground v.1.15,2013-07-01 18:10:00,
2013-07-01 14:15:00,76.7,76.7,29.91,South,176,5.0,15.0,100,0.00,,,0.18,Wunderground v.1.15,2013-07-01 18:15:00,
2013-07-01 14:20:00,76.9,76.9,29.91,South,183,5.0,7.0,100,0.00,,,0.18,Wunderground v.1.15,2013-07-01 18:20:00,
2013-07-01 14:25:00,77.4,77.4,29.91,SSE,155,4.0,12.0,100,0.00,,,0.18,Wunderground v.1.15,2013-07-01 18:25:00,
2013-07-01 14:30:00,77.6,77.6,29.91,South,169,6.0,6.0,100,0.00,,,0.18,Wunderground v.1.15,2013-07-01 18:30:00,
2013-07-01 14:35:00,77.9,77.6,29.91,South,180,5.0,10.0,99,0.00,,,0.18,Wunderground v.1.15,2013-07-01 18:35:00,
2013-07-01 14:40:00,78.0,77.7,29.91,SE,146,9.0,9.0,99,0.00,,,0.18,Wunderground v.1.15,2013-07-01 18:40:00,
2013-07-01 14:45:00,78.0,77.7,29.91,South,171,4.0,14.0,99,0.00,,,0.18,Wunderground v.1.15,2013-07-01 18:45:00,
2013-07-01 14:50:00,77.9,77.3,29.92,SSE,156,5.0,12.0,98,0.00,,,0.18,Wunderground v.1.15,2013-07-01 18:50:00,
2013-07-01 14:55:00,78.0,77.1,29.92,South,182,13.0,16.0,97,0.00,,,0.18,Wunderground v.1.15,2013-07-01 18:55:00,
2013-07-01 15:00:00,78.2,77.3,29.91,South,184,13.0,15.0,97,0.00,,,0.18,Wunderground v.1.15,2013-07-01 19:00:00,
2013-07-01 15:05:00,78.3,77.4,29.92,South,181,11.0,16.0,97,0.00,,,0.18,Wunderground v.1.15,2013-07-01 19:05:00,
2013-07-01 15:10:00,78.4,77.5,29.92,South,175,7.0,16.0,97,0.00,,,0.18,Wunderground v.1.15,2013-07-01 19:10:00,
2013-07-01 15:15:00,78.7,77.5,29.92,South,182,13.0,17.0,96,0.00,,,0.18,Wunderground v.1.15,2013-07-01 19:15:00,
2013-07-01 15:20:00,78.8,77.6,29.92,South,187,18.0,18.0,96,0.00,,,0.18,Wunderground v.1.15,2013-07-01 19:20:00,
2013-07-01 15:25:00,78.9,77.0,29.92,South,184,15.0,20.0,94,0.00,,,0.18,Wunderground v.1.15,2013-07-01 19:25:00,
2013-07-01 15:30:00,79.1,77.2,29.92,SSW,193,14.0,19.0,94,0.00,,,0.18,Wunderground v.1.15,2013-07-01 19:30:00,
2013-07-01 15:35:00,79.1,77.2,29.92,South,184,18.0,19.0,94,0.00,,,0.18,Wunderground v.1.15,2013-07-01 19:35:00,
2013-07-01 15:40:00,79.3,77.4,29.92,South,184,14.0,16.0,94,0.00,,,0.18,Wunderground v.1.15,2013-07-01 19:40:00,
2013-07-01 15:45:00,79.4,77.2,29.92,South,184,13.0,17.0,93,0.00,,,0.18,Wunderground v.1.15,2013-07-01 19:45:00,
2013-07-01 15:50:00,79.3,77.1,29.92,South,188,14.0,15.0,93,0.00,,,0.18,Wunderground v.1.15,2013-07-01 19:50:00,
2013-07-01 15:55:00,79.2,77.3,29.92,SSW,192,17.0,18.0,94,0.00,,,0.18,Wunderground v.1.15,2013-07-01 19:55:00,
2013-07-01 16:00:00,79.3,77.4,29.92,South,173,15.0,15.0,94,0.00,,,0.18,Wunderground v.1.15,2013-07-01 20:00:00,
2013-07-01 16:05:00,79.6,77.7,29.92,South,189,18.0,18.0,94,0.00,,,0.18,Wunderground v.1.15,2013-07-01 20:05:00,
2013-07-01 16:11:00,79.9,78.0,29.91,South,190,15.0,15.0,94,0.00,,,0.18,Wunderground v.1.15,2013-07-01 20:11:00,
2013-07-01 16:16:00,80.0,77.8,29.91,SSW,194,18.0,19.0,93,0.00,,,0.18,Wunderground v.1.15,2013-07-01 20:16:00,
2013-07-01 16:21:00,79.9,77.7,29.91,South,188,12.0,16.0,93,0.00,,,0.18,Wunderground v.1.15,2013-07-01 20:21:00,
2013-07-01 16:26:00,80.2,78.3,29.91,SSE,167,5.0,16.0,94,0.00,,,0.18,Wunderground v.1.15,2013-07-01 20:26:00,
2013-07-01 16:32:00,80.5,78.3,29.92,South,182,3.0,14.0,93,0.00,,,0.18,Wunderground v.1.15,2013-07-01 20:32:00,
2013-07-01 16:37:00,80.3,78.1,29.92,SE,144,4.0,14.0,93,0.00,,,0.18,Wunderground v.1.15,2013-07-01 20:37:00,
2013-07-01 16:42:00,80.2,78.0,29.92,South,181,5.0,9.0,93,0.00,,,0.18,Wunderground v.1.15,2013-07-01 20:42:00,
2013-07-01 16:47:00,80.1,77.9,29.92,SSE,153,6.0,9.0,93,0.00,,,0.18,Wunderground v.1.15,2013-07-01 20:47:00,
2013-07-01 16:52:00,80.0,77.8,29.92,South,179,5.0,11.0,93,0.00,,,0.18,Wunderground v.1.15,2013-07-01 20:52:00,
2013-07-01 16:57:00,80.1,77.6,29.92,SSE,168,4.0,11.0,92,0.00,,,0.18,Wunderground v.1.15,2013-07-01 20:57:00,
2013-07-01 17:02:00,80.1,77.6,29.92,South,172,5.0,9.0,92,0.00,,,0.18,Wunderground v.1.15,2013-07-01 21:02:00,
2013-07-01 17:07:00,80.1,77.2,29.92,South,184,15.0,15.0,91,0.00,,,0.18,Wunderground v.1.15,2013-07-01 21:07:00,
2013-07-01 17:12:00,80.3,77.1,29.92,South,180,9.0,15.0,90,0.00,,,0.18,Wunderground v.1.15,2013-07-01 21:12:00,
2013-07-01 17:17:00,80.3,77.1,29.92,SSW,199,10.0,18.0,90,0.00,,,0.18,Wunderground v.1.15,2013-07-01 21:17:00,
2013-07-01 17:22:00,80.2,77.0,29.93,SSE,162,3.0,11.0,90,0.00,,,0.18,Wunderground v.1.15,2013-07-01 21:22:00,
2013-07-01 17:27:00,80.0,77.1,29.93,South,175,9.0,15.0,91,0.00,,,0.18,Wunderground v.1.15,2013-07-01 21:27:00,
2013-07-01 17:32:00,79.9,77.4,29.93,SE,126,7.0,13.0,92,0.00,,,0.18,Wunderground v.1.15,2013-07-01 21:32:00,
2013-07-01 17:37:00,79.7,77.2,29.93,South,177,4.0,13.0,92,0.00,,,0.18,Wunderground v.1.15,2013-07-01 21:37:00,
2013-07-01 17:42:00,79.5,77.3,29.93,SSE,157,6.0,16.0,93,0.00,,,0.18,Wunderground v.1.15,2013-07-01 21:42:00,
2013-07-01 17:47:00,79.4,77.2,29.93,South,171,5.0,16.0,93,0.00,,,0.18,Wunderground v.1.15,2013-07-01 21:47:00,
2013-07-01 17:53:00,79.4,77.2,29.93,SSW,208,6.0,15.0,93,0.00,,,0.18,Wunderground v.1.15,2013-07-01 21:53:00,
2013-07-01 17:58:00,79.3,77.1,29.93,South,172,10.0,16.0,93,0.00,,,0.18,Wunderground v.1.15,2013-07-01 21:58:00,
2013-07-01 18:03:00,79.1,77.2,29.93,SE,140,8.0,16.0,94,0.00,,,0.18,Wunderground v.1.15,2013-07-01 22:03:00,
2013-07-01 18:08:00,78.9,77.0,29.93,SE,141,7.0,16.0,94,0.00,,,0.18,Wunderground v.1.15,2013-07-01 22:08:00,
2013-07-01 18:13:00,78.7,77.1,29.93,SSE,148,9.0,12.0,95,0.00,,,0.18,Wunderground v.1.15,2013-07-01 22:13:00,
2013-07-01 18:18:00,78.7,77.1,29.93,SSE,149,5.0,13.0,95,0.00,,,0.18,Wunderground v.1.15,2013-07-01 22:18:00,
2013-07-01 18:23:00,78.7,77.1,29.93,South,180,12.0,20.0,95,0.00,,,0.18,Wunderground v.1.15,2013-07-01 22:23:00,
2013-07-01 18:28:00,78.3,76.4,29.93,South,176,11.0,21.0,94,0.00,,,0.18,Wunderground v.1.15,2013-07-01 22:28:00,
2013-07-01 18:33:00,78.1,76.6,29.93,South,175,10.0,20.0,95,0.00,,,0.18,Wunderground v.1.15,2013-07-01 22:33:00,
2013-07-01 18:38:00,78.1,76.6,29.93,South,177,14.0,22.0,95,0.00,,,0.18,Wunderground v.1.15,2013-07-01 22:38:00,
2013-07-01 18:43:00,78.1,76.2,29.93,South,173,18.0,20.0,94,0.00,,,0.18,Wunderground v.1.15,2013-07-01 22:43:00,
2013-07-01 18:48:00,78.3,76.4,29.93,South,187,19.0,22.0,94,0.00,,,0.18,Wunderground v.1.15,2013-07-01 22:48:00,
2013-07-01 18:53:00,78.7,76.8,29.93,South,178,12.0,22.0,94,0.00,,,0.18,Wunderground v.1.15,2013-07-01 22:53:00,
2013-07-01 18:59:00,78.7,76.5,29.93,South,183,13.0,22.0,93,0.00,,,0.18,Wunderground v.1.15,2013-07-01 22:59:00,
2013-07-01 19:04:00,78.6,76.4,29.94,South,188,11.0,21.0,93,0.00,,,0.18,Wunderground v.1.15,2013-07-01 23:04:00,
2013-07-01 19:09:00,78.4,76.5,29.94,SSE,156,6.0,21.0,94,0.00,,,0.18,Wunderground v.1.15,2013-07-01 23:09:00,
2013-07-01 19:14:00,78.3,76.7,29.94,South,180,7.0,17.0,95,0.00,,,0.18,Wunderground v.1.15,2013-07-01 23:14:00,
2013-07-01 19:19:00,78.2,76.6,29.94,SSE,163,17.0,17.0,95,0.00,,,0.18,Wunderground v.1.15,2013-07-01 23:19:00,
2013-07-01 19:24:00,78.2,77.0,29.94,South,173,3.0,16.0,96,0.00,,,0.18,Wunderground v.1.15,2013-07-01 23:24:00,
2013-07-01 19:29:00,78.1,77.2,29.94,SE,138,5.0,16.0,97,0.00,,,0.18,Wunderground v.1.15,2013-07-01 23:29:00,
2013-07-01 19:34:00,78.0,77.1,29.94,South,169,10.0,16.0,97,0.00,,,0.18,Wunderground v.1.15,2013-07-01 23:34:00,
2013-07-01 19:39:00,78.1,77.2,29.94,SSE,162,5.0,16.0,97,0.00,,,0.18,Wunderground v.1.15,2013-07-01 23:39:00,
2013-07-01 19:44:00,78.1,77.5,29.95,South,182,15.0,16.0,98,0.00,,,0.18,Wunderground v.1.15,2013-07-01 23:44:00,
2013-07-01 19:49:00,78.2,77.6,29.95,South,184,7.0,16.0,98,0.00,,,0.18,Wunderground v.1.15,2013-07-01 23:49:00,
2013-07-01 19:54:00,78.3,77.7,29.95,South,178,14.0,19.0,98,0.00,,,0.18,Wunderground v.1.15,2013-07-01 23:54:00,
2013-07-01 19:59:00,78.3,77.4,29.95,South,180,3.0,19.0,97,0.00,,,0.18,Wunderground v.1.15,2013-07-01 23:59:00,
2013-07-01 20:05:00,78.3,77.4,29.95,South,186,11.0,20.0,97,0.00,,,0.18,Wunderground v.1.15,2013-07-02 00:05:00,
2013-07-01 20:10:00,78.4,77.5,29.95,South,183,8.0,11.0,97,0.00,,,0.18,Wunderground v.1.15,2013-07-02 00:10:00,
2013-07-01 20:15:00,78.4,77.2,29.95,South,175,7.0,18.0,96,0.00,,,0.18,Wunderground v.1.15,2013-07-02 00:15:00,
2013-07-01 20:20:00,78.5,77.3,29.95,SSE,149,8.0,19.0,96,0.00,,,0.18,Wunderground v.1.15,2013-07-02 00:20:00,
2013-07-01 20:25:00,78.6,77.0,29.95,South,169,5.0,19.0,95,0.00,,,0.18,Wunderground v.1.15,2013-07-02 00:25:00,
2013-07-01 20:30:00,78.6,77.0,29.95,South,179,15.0,15.0,95,0.00,,,0.18,Wunderground v.1.15,2013-07-02 00:30:00,
2013-07-01 20:35:00,78.6,77.0,29.95,South,182,11.0,19.0,95,0.00,,,0.18,Wunderground v.1.15,2013-07-02 00:35:00,
2013-07-01 20:40:00,78.7,77.1,29.94,South,180,6.0,10.0,95,0.00,,,0.18,Wunderground v.1.15,2013-07-02 00:40:00,
2013-07-01 20:45:00,78.7,77.1,29.94,SSE,161,13.0,17.0,95,0.00,,,0.18,Wunderground v.1.15,2013-07-02 00:45:00,
2013-07-01 20:50:00,78.7,77.1,29.94,South,171,6.0,15.0,95,0.00,,,0.18,Wunderground v.1.15,2013-07-02 00:50:00,
2013-07-01 20:55:00,78.7,77.1,29.94,South,184,16.0,19.0,95,0.00,,,0.18,Wunderground v.1.15,2013-07-02 00:55:00,
2013-07-01 21:00:00,78.7,77.1,29.94,SSE,162,9.0,20.0,95,0.00,,,0.18,Wunderground v.1.15,2013-07-02 01:00:00,
2013-07-01 21:05:00,78.7,77.5,29.95,South,180,9.0,20.0,96,0.00,,,0.18,Wunderground v.1.15,2013-07-02 01:05:00,
2013-07-01 21:10:00,78.7,77.5,29.95,SSE,160,4.0,14.0,96,0.00,,,0.18,Wunderground v.1.15,2013-07-02 01:10:00,
2013-07-01 21:15:00,78.7,77.5,29.95,South,178,9.0,20.0,96,0.00,,,0.18,Wunderground v.1.15,2013-07-02 01:15:00,
2013-07-01 21:20:00,78.7,77.5,29.95,SSE,165,3.0,12.0,96,0.00,,,0.18,Wunderground v.1.15,2013-07-02 01:20:00,
2013-07-01 21:25:00,78.7,77.5,29.95,South,179,5.0,19.0,96,0.00,,,0.18,Wunderground v.1.15,2013-07-02 01:25:00,
2013-07-01 21:30:00,78.7,77.5,29.95,South,189,10.0,20.0,96,0.00,,,0.18,Wunderground v.1.15,2013-07-02 01:30:00,
2013-07-01 21:35:00,78.7,77.5,29.95,South,187,17.0,20.0,96,0.00,,,0.18,Wunderground v.1.15,2013-07-02 01:35:00,
2013-07-01 21:41:00,78.7,77.5,29.95,SSE,163,6.0,19.0,96,0.00,,,0.18,Wunderground v.1.15,2013-07-02 01:41:00,
2013-07-01 21:46:00,78.7,77.5,29.96,South,180,11.0,19.0,96,0.00,,,0.18,Wunderground v.1.15,2013-07-02 01:46:00,
2013-07-01 21:51:00,78.7,77.5,29.95,South,191,20.0,21.0,96,0.00,,,0.18,Wunderground v.1.15,2013-07-02 01:51:00,
2013-07-01 21:56:00,78.7,77.5,29.96,SSE,167,8.0,21.0,96,0.00,,,0.18,Wunderground v.1.15,2013-07-02 01:56:00,
2013-07-01 22:01:00,78.7,77.5,29.96,South,182,14.0,19.0,96,0.00,,,0.18,Wunderground v.1.15,2013-07-02 02:01:00,
2013-07-01 22:06:00,78.7,77.5,29.96,South,186,17.0,20.0,96,0.00,,,0.18,Wunderground v.1.15,2013-07-02 02:06:00,
2013-07-01 22:11:00,78.7,77.5,29.96,South,176,12.0,18.0,96,0.00,,,0.18,Wunderground v.1.15,2013-07-02 02:11:00,
2013-07-01 22:16:00,78.7,77.5,29.96,South,175,14.0,22.0,96,0.00,,,0.18,Wunderground v.1.15,2013-07-02 02:16:00,
2013-07-01 22:21:00,78.7,77.5,29.96,SSW,192,7.0,17.0,96,0.00,,,0.18,Wunderground v.1.15,2013-07-02 02:21:00,
2013-07-01 22:26:00,78.7,77.5,29.96,South,183,19.0,19.0,96,0.00,,,0.18,Wunderground v.1.15,2013-07-02 02:26:00,
2013-07-01 22:31:00,78.7,77.5,29.97,South,185,13.0,18.0,96,0.00,,,0.18,Wunderground v.1.15,2013-07-02 02:31:00,
2013-07-01 22:36:00,78.7,77.5,29.97,South,173,6.0,20.0,96,0.00,,,0.18,Wunderground v.1.15,2013-07-02 02:36:00,
2013-07-01 22:41:00,78.6,77.4,29.96,South,171,9.0,19.0,96,0.00,,,0.18,Wunderground v.1.15,2013-07-02 02:41:00,
2013-07-01 22:46:00,78.7,77.5,29.97,South,180,20.0,20.0,96,0.00,,,0.18,Wunderground v.1.15,2013-07-02 02:46:00,
2013-07-01 22:51:00,78.6,77.4,29.97,South,175,15.0,18.0,96,0.00,,,0.18,Wunderground v.1.15,2013-07-02 02:51:00,
2013-07-01 22:56:00,78.6,77.4,29.97,South,173,17.0,20.0,96,0.00,,,0.18,Wunderground v.1.15,2013-07-02 02:56:00,
2013-07-01 23:01:00,78.7,77.5,29.98,SSE,168,11.0,21.0,96,0.00,,,0.18,Wunderground v.1.15,2013-07-02 03:01:00,
2013-07-01 23:06:00,78.7,77.8,29.98,South,170,13.0,22.0,97,0.00,,,0.18,Wunderground v.1.15,2013-07-02 03:06:00,
2013-07-01 23:11:00,78.7,77.5,29.98,South,188,19.0,23.0,96,0.00,,,0.18,Wunderground v.1.15,2013-07-02 03:11:00,
2013-07-01 23:16:00,78.7,77.8,29.98,SSW,198,18.0,23.0,97,0.00,,,0.18,Wunderground v.1.15,2013-07-02 03:16:00,
2013-07-01 23:21:00,78.8,77.6,29.98,South,180,16.0,18.0,96,0.00,,,0.18,Wunderground v.1.15,2013-07-02 03:21:00,
2013-07-01 23:26:00,78.7,77.5,29.98,SSW,196,16.0,24.0,96,0.00,,,0.18,Wunderground v.1.15,2013-07-02 03:26:00,
2013-07-01 23:32:00,78.7,77.5,29.98,South,184,13.0,24.0,96,0.00,,,0.18,Wunderground v.1.15,2013-07-02 03:32:00,
2013-07-01 23:37:00,78.8,77.6,29.98,South,186,19.0,24.0,96,0.00,,,0.18,Wunderground v.1.15,2013-07-02 03:37:00,
2013-07-01 23:42:00,78.7,77.5,29.98,South,186,24.0,25.0,96,0.00,,,0.18,Wunderground v.1.15,2013-07-02 03:42:00,
2013-07-01 23:47:00,78.7,77.5,29.98,South,174,19.0,26.0,96,0.00,,,0.18,Wunderground v.1.15,2013-07-02 03:47:00,
2013-07-01 23:53:00,78.7,77.5,29.99,South,191,21.0,25.0,96,0.00,,,0.18,Wunderground v.1.15,2013-07-02 03:53:00,
2013-07-01 23:58:00,78.7,77.8,29.99,SSW,197,18.0,25.0,97,0.00,,,0.18,Wunderground v.1.15,2013-07-02 03:58:00,